Time,TemperatureF,DewpointF,PressureIn,WindDirection,WindDirectionDegrees,WindSpeedMPH,WindSpeedGustMPH,Humidity,HourlyPrecipIn,Conditions,Clouds,dailyrainin,SoftwareType,DateUTC
2013-03-08 00:02:00,62.8,30.0,29.88,NNE,25,0.0,2.0,29,0.00,,,0.00,weatherlink.com 1.10,2013-03-08 07:02:00,
2013-03-08 00:17:00,63.0,32.0,29.88,ESE,115,4.0,4.0,31,0.00,,,0.00,weatherlink.com 1.10,2013-03-08 07:17:00,
2013-03-08 00:32:00,62.6,31.0,29.88,WSW,255,1.0,4.0,31,0.00,,,0.00,weatherlink.com 1.10,2013-03-08 07:32:00,
2013-03-08 00:47:00,63.2,29.0,29.88,SW,235,8.0,12.0,28,0.00,,,0.00,weatherlink.com 1.10,2013-03-08 07:47:00,
2013-03-08 01:02:00,62.8,27.0,29.88,WSW,240,3.0,8.0,26,0.00,,,0.00,weatherlink.com 1.10,2013-03-08 08:02:00,
2013-03-08 01:17:00,62.9,26.0,29.87,South,186,2.0,6.0,25,0.00,,,0.00,weatherlink.com 1.10,2013-03-08 08:17:00,
2013-03-08 01:32:00,62.6,26.0,29.87,WSW,243,3.0,4.0,25,0.00,,,0.00,weatherlink.com 1.10,2013-03-08 08:32:00,
2013-03-08 01:47:00,63.3,25.0,29.86,SSW,197,8.0,9.0,23,0.00,,,0.00,weatherlink.com 1.10,2013-03-08 08:47:00,
2013-03-08 02:02:00,63.5,25.0,29.86,SE,143,3.0,6.0,23,0.00,,,0.00,weatherlink.com 1.10,2013-03-08 09:02:00,
2013-03-08 02:17:00,63.3,26.0,29.86,SW,231,3.0,9.0,24,0.00,,,0.00,weatherlink.com 1.10,2013-03-08 09:17:00,
2013-03-08 02:32:00,63.1,27.0,29.86,SW,235,7.0,11.0,25,0.00,,,0.00,weatherlink.com 1.10,2013-03-08 09:32:00,
2013-03-08 02:47:00,62.6,31.0,29.86,NE,47,5.0,10.0,31,0.00,,,0.00,weatherlink.com 1.10,2013-03-08 09:47:00,
2013-03-08 03:02:00,63.4,36.0,29.85,SW,218,9.0,17.0,37,0.00,,,0.00,weatherlink.com 1.10,2013-03-08 10:02:00,
2013-03-08 03:18:00,61.7,45.0,29.86,West,267,20.0,39.0,54,0.00,,,0.00,weatherlink.com 1.10,2013-03-08 10:18:00,
2013-03-08 03:33:00,57.5,47.0,29.87,WSW,246,10.0,25.0,68,0.02,,,0.02,weatherlink.com 1.10,2013-03-08 10:33:00,
2013-03-08 03:48:00,55.2,48.0,29.88,SE,146,5.0,16.0,78,0.04,,,0.04,weatherlink.com 1.10,2013-03-08 10:48:00,
2013-03-08 04:03:00,53.5,49.0,29.87,WSW,245,2.0,13.0,84,0.07,,,0.07,weatherlink.com 1.10,2013-03-08 11:03:00,
2013-03-08 04:18:00,53.3,49.0,29.86,SW,214,17.0,21.0,85,0.10,,,0.10,weatherlink.com 1.10,2013-03-08 11:18:00,
2013-03-08 04:33:00,52.6,49.0,29.85,SSE,149,10.0,31.0,87,0.13,,,0.15,weatherlink.com 1.10,2013-03-08 11:33:00,
2013-03-08 04:48:00,52.7,50.0,29.82,ESE,113,14.0,15.0,89,0.13,,,0.17,weatherlink.com 1.10,2013-03-08 11:48:00,
2013-03-08 05:03:00,52.8,50.0,29.83,East,86,1.0,12.0,89,0.10,,,0.17,weatherlink.com 1.10,2013-03-08 12:03:00,
2013-03-08 05:18:00,52.9,50.0,29.83,SW,214,4.0,14.0,90,0.07,,,0.17,weatherlink.com 1.10,2013-03-08 12:18:00,
2013-03-08 05:33:00,53.3,51.0,29.82,West,281,4.0,14.0,90,0.02,,,0.17,weatherlink.com 1.10,2013-03-08 12:33:00,
2013-03-08 05:48:00,53.6,51.0,29.82,NE,51,3.0,20.0,89,0.01,,,0.18,weatherlink.com 1.10,2013-03-08 12:48:00,
2013-03-08 06:03:00,53.7,50.0,29.84,SE,135,3.0,11.0,88,0.01,,,0.18,weatherlink.com 1.10,2013-03-08 13:03:00,
2013-03-08 06:18:00,53.7,51.0,29.85,East,100,8.0,17.0,89,0.05,,,0.22,weatherlink.com 1.10,2013-03-08 13:18:00,
2013-03-08 06:33:00,53.6,51.0,29.85,ESE,105,8.0,21.0,89,0.06,,,0.23,weatherlink.com 1.10,2013-03-08 13:33:00,
2013-03-08 06:48:00,53.7,51.0,29.86,ESE,107,11.0,19.0,89,0.05,,,0.23,weatherlink.com 1.10,2013-03-08 13:48:00,
2013-03-08 07:03:00,53.9,51.0,29.84,ESE,103,11.0,19.0,88,0.06,,,0.24,weatherlink.com 1.10,2013-03-08 14:03:00,
2013-03-08 07:18:00,53.4,50.0,29.86,SE,138,10.0,16.0,88,0.02,,,0.24,weatherlink.com 1.10,2013-03-08 14:18:00,
2013-03-08 07:33:00,53.1,50.0,29.86,West,269,6.0,17.0,88,0.01,,,0.24,weatherlink.com 1.10,2013-03-08 14:33:00,
2013-03-08 07:48:00,53.3,50.0,29.85,SE,136,13.0,19.0,88,0.01,,,0.24,weatherlink.com 1.10,2013-03-08 14:48:00,
2013-03-08 08:03:00,53.3,50.0,29.86,ESE,113,14.0,18.0,87,0.01,,,0.25,weatherlink.com 1.10,2013-03-08 15:03:00,
2013-03-08 08:18:00,53.6,50.0,29.87,ESE,118,14.0,18.0,86,0.01,,,0.00,weatherlink.com 1.10,2013-03-08 15:18:00,
2013-03-08 08:33:00,53.4,49.0,29.88,ESE,109,14.0,17.0,86,0.01,,,0.00,weatherlink.com 1.10,2013-03-08 15:33:00,
2013-03-08 08:48:00,53.3,50.0,29.88,ESE,116,5.0,14.0,87,0.01,,,0.00,weatherlink.com 1.10,2013-03-08 15:48:00,
2013-03-08 09:03:00,53.7,50.0,29.88,ESE,118,8.0,11.0,86,0.00,,,0.00,weatherlink.com 1.10,2013-03-08 16:03:00,
2013-03-08 09:18:00,54.0,50.0,29.88,ESE,119,6.0,11.0,86,0.00,,,0.00,weatherlink.com 1.10,2013-03-08 16:18:00,
2013-03-08 09:33:00,54.1,50.0,29.88,ESE,118,12.0,12.0,86,0.00,,,0.00,weatherlink.com 1.10,2013-03-08 16:33:00,
2013-03-08 09:48:00,55.2,51.0,29.88,SE,133,5.0,12.0,84,0.00,,,0.00,weatherlink.com 1.10,2013-03-08 16:48:00,
2013-03-08 10:03:00,57.8,52.0,29.88,SE,125,6.0,15.0,81,0.00,,,0.00,weatherlink.com 1.10,2013-03-08 17:03:00,
2013-03-08 10:19:00,60.0,52.0,29.87,ESE,105,14.0,14.0,75,0.00,,,0.00,weatherlink.com 1.10,2013-03-08 17:19:00,
2013-03-08 10:34:00,61.6,52.0,29.86,NNE,26,7.0,12.0,72,0.00,,,0.00,weatherlink.com 1.10,2013-03-08 17:34:00,
2013-03-08 10:49:00,61.0,50.0,29.86,SW,217,6.0,19.0,68,0.00,,,0.00,weatherlink.com 1.10,2013-03-08 17:49:00,
2013-03-08 11:04:00,60.4,49.0,29.85,SW,224,8.0,17.0,66,0.00,,,0.00,weatherlink.com 1.10,2013-03-08 18:04:00,
2013-03-08 11:19:00,61.5,50.0,29.85,WNW,282,5.0,16.0,66,0.00,,,0.00,weatherlink.com 1.10,2013-03-08 18:19:00,
2013-03-08 11:34:00,63.4,49.0,29.84,West,262,3.0,17.0,60,0.00,,,0.00,weatherlink.com 1.10,2013-03-08 18:34:00,
2013-03-08 11:49:00,64.5,48.0,29.83,East,84,8.0,19.0,55,0.00,,,0.00,weatherlink.com 1.10,2013-03-08 18:49:00,
2013-03-08 12:04:00,63.0,47.0,29.83,East,82,4.0,16.0,56,0.00,,,0.00,weatherlink.com 1.10,2013-03-08 19:04:00,
2013-03-08 12:19:00,65.2,45.0,29.81,NW,319,4.0,18.0,49,0.00,,,0.00,weatherlink.com 1.10,2013-03-08 19:19:00,
2013-03-08 12:34:00,62.7,45.0,29.81,ESE,118,9.0,21.0,52,0.00,,,0.00,weatherlink.com 1.10,2013-03-08 19:34:00,
2013-03-08 12:49:00,59.5,48.0,29.81,WNW,300,3.0,23.0,65,0.00,,,0.00,weatherlink.com 1.10,2013-03-08 19:49:00,
2013-03-08 13:04:00,57.1,47.0,29.80,SE,146,13.0,24.0,68,0.00,,,0.00,weatherlink.com 1.10,2013-03-08 20:04:00,
2013-03-08 13:19:00,58.0,48.0,29.79,South,181,5.0,13.0,69,0.00,,,0.00,weatherlink.com 1.10,2013-03-08 20:19:00,
2013-03-08 13:34:00,58.2,49.0,29.79,WSW,248,5.0,24.0,71,0.03,,,0.03,weatherlink.com 1.10,2013-03-08 20:34:00,
2013-03-08 13:49:00,53.8,49.0,29.79,SW,226,8.0,8.0,84,0.07,,,0.07,weatherlink.com 1.10,2013-03-08 20:49:00,
2013-03-08 14:04:00,53.0,48.0,29.78,WNW,288,5.0,10.0,84,0.07,,,0.07,weatherlink.com 1.10,2013-03-08 21:04:00,
2013-03-08 14:19:00,53.7,50.0,29.78,WNW,290,3.0,5.0,86,0.07,,,0.07,weatherlink.com 1.10,2013-03-08 21:19:00,
2013-03-08 14:34:00,45.8,42.0,29.84,West,262,7.0,22.0,86,0.15,,,0.18,weatherlink.com 1.10,2013-03-08 21:34:00,
2013-03-08 14:49:00,45.2,42.0,29.84,West,271,19.0,30.0,89,0.12,,,0.19,weatherlink.com 1.10,2013-03-08 21:49:00,
2013-03-08 15:04:00,44.9,42.0,29.85,WSW,252,16.0,30.0,90,0.13,,,0.20,weatherlink.com 1.10,2013-03-08 22:04:00,
2013-03-08 15:19:00,44.9,42.0,29.86,WNW,288,11.0,33.0,90,0.13,,,0.20,weatherlink.com 1.10,2013-03-08 22:19:00,
2013-03-08 15:34:00,45.0,42.0,29.86,WNW,293,14.0,27.0,89,0.02,,,0.20,weatherlink.com 1.10,2013-03-08 22:34:00,
2013-03-08 15:49:00,44.9,42.0,29.89,West,264,18.0,29.0,90,0.02,,,0.21,weatherlink.com 1.10,2013-03-08 22:49:00,
2013-03-08 16:04:00,45.3,43.0,29.87,NW,314,1.0,17.0,90,0.01,,,0.21,weatherlink.com 1.10,2013-03-08 23:04:00,
2013-03-08 16:19:00,46.3,44.0,29.88,WSW,240,5.0,8.0,90,0.01,,,0.21,weatherlink.com 1.10,2013-03-08 23:19:00,
2013-03-08 16:34:00,47.8,45.0,29.89,West,281,4.0,11.0,88,0.01,,,0.21,weatherlink.com 1.10,2013-03-08 23:34:00,
2013-03-08 16:49:00,48.2,45.0,29.90,West,266,2.0,7.0,87,0.00,,,0.21,weatherlink.com 1.10,2013-03-08 23:49:00,
2013-03-08 17:04:00,48.4,44.0,29.90,WNW,286,1.0,10.0,85,0.00,,,0.21,weatherlink.com 1.10,2013-03-09 00:04:00,
2013-03-08 17:20:00,50.9,45.0,29.90,ESE,115,0.0,8.0,80,0.00,,,0.21,weatherlink.com 1.10,2013-03-09 00:20:00,
2013-03-08 17:35:00,49.8,43.0,29.91,NE,54,0.0,7.0,78,0.00,,,0.21,weatherlink.com 1.10,2013-03-09 00:35:00,
2013-03-08 17:49:00,49.4,42.0,29.91,East,85,0.0,8.0,77,0.00,,,0.21,weatherlink.com 1.10,2013-03-09 00:49:00,
2013-03-08 18:05:00,49.1,42.0,29.91,East,89,8.0,8.0,77,0.00,,,0.21,weatherlink.com 1.10,2013-03-09 01:05:00,
2013-03-08 18:20:00,48.3,42.0,29.91,NE,46,9.0,15.0,79,0.00,,,0.21,weatherlink.com 1.10,2013-03-09 01:20:00,
2013-03-08 18:35:00,47.9,42.0,29.92,East,100,7.0,15.0,79,0.00,,,0.21,weatherlink.com 1.10,2013-03-09 01:35:00,
2013-03-08 18:50:00,47.8,42.0,29.92,NE,47,7.0,16.0,80,0.00,,,0.21,weatherlink.com 1.10,2013-03-09 01:50:00,
2013-03-08 19:05:00,47.1,42.0,29.92,ENE,78,16.0,16.0,81,0.00,,,0.21,weatherlink.com 1.10,2013-03-09 02:05:00,
2013-03-08 19:20:00,47.0,41.0,29.94,ENE,74,7.0,13.0,81,0.00,,,0.21,weatherlink.com 1.10,2013-03-09 02:20:00,
2013-03-08 19:35:00,46.7,42.0,29.94,East,90,9.0,10.0,82,0.00,,,0.21,weatherlink.com 1.10,2013-03-09 02:35:00,
2013-03-08 19:50:00,46.5,42.0,29.95,NE,51,6.0,8.0,83,0.00,,,0.21,weatherlink.com 1.10,2013-03-09 02:50:00,
2013-03-08 20:05:00,46.5,41.0,29.95,ESE,115,0.0,11.0,82,0.01,,,0.22,weatherlink.com 1.10,2013-03-09 03:05:00,
2013-03-08 20:20:00,44.5,40.0,29.98,NW,307,4.0,19.0,84,0.07,,,0.28,weatherlink.com 1.10,2013-03-09 03:20:00,
2013-03-08 20:35:00,43.8,41.0,29.98,NE,37,0.0,5.0,91,0.08,,,0.29,weatherlink.com 1.10,2013-03-09 03:35:00,
2013-03-08 20:50:00,44.2,42.0,29.97,ENE,77,11.0,13.0,91,0.08,,,0.29,weatherlink.com 1.10,2013-03-09 03:50:00,
2013-03-08 21:05:00,44.3,42.0,29.97,ENE,65,11.0,12.0,90,0.07,,,0.29,weatherlink.com 1.10,2013-03-09 04:05:00,
2013-03-08 21:20:00,44.6,42.0,29.98,ENE,61,4.0,13.0,90,0.01,,,0.29,weatherlink.com 1.10,2013-03-09 04:20:00,
2013-03-08 21:35:00,44.8,42.0,30.00,NNE,25,7.0,9.0,91,0.00,,,0.29,weatherlink.com 1.10,2013-03-09 04:35:00,
2013-03-08 21:50:00,44.9,43.0,30.01,WSW,244,0.0,5.0,91,0.00,,,0.29,weatherlink.com 1.10,2013-03-09 04:50:00,
2013-03-08 22:05:00,44.8,43.0,30.01,ENE,60,8.0,8.0,92,0.00,,,0.29,weatherlink.com 1.10,2013-03-09 05:05:00,
2013-03-08 22:20:00,44.1,42.0,30.00,East,81,16.0,21.0,91,0.00,,,0.29,weatherlink.com 1.10,2013-03-09 05:20:00,
2013-03-08 22:35:00,43.7,41.0,30.02,East,97,7.0,16.0,91,0.00,,,0.29,weatherlink.com 1.10,2013-03-09 05:35:00,
2013-03-08 22:50:00,43.5,41.0,30.01,NE,36,8.0,15.0,91,0.00,,,0.29,weatherlink.com 1.10,2013-03-09 05:50:00,
2013-03-08 23:05:00,43.7,41.0,30.01,East,84,8.0,17.0,90,0.00,,,0.29,weatherlink.com 1.10,2013-03-09 06:05:00,
2013-03-08 23:20:00,44.0,41.0,30.02,ENE,64,7.0,13.0,90,0.00,,,0.29,weatherlink.com 1.10,2013-03-09 06:20:00,
2013-03-08 23:35:00,44.2,41.0,30.02,ENE,72,11.0,14.0,89,0.00,,,0.29,weatherlink.com 1.10,2013-03-09 06:35:00,
2013-03-08 23:50:00,44.4,41.0,30.02,ENE,68,7.0,12.0,88,0.00,,,0.29,weatherlink.com 1.10,2013-03-09 06:50:00,